createdAt,value
2018-09-08T00:02:00.911Z,14.44
2018-09-08T00:04:30.007Z,14.39
2018-09-08T00:07:04.232Z,14.39
2018-09-08T00:09:33.031Z,14.25
2018-09-08T00:12:02.603Z,14.21
2018-09-08T00:14:31.504Z,14.08
2018-09-08T00:17:05.476Z,14.03
2018-09-08T00:19:39.729Z,14.05
2018-09-08T00:22:13.733Z,13.94
2018-09-08T00:24:47.961Z,13.94
2018-09-08T00:27:21.205Z,13.80
2018-09-08T00:29:51.160Z,13.82
2018-09-08T00:32:21.348Z,13.85
2018-09-08T00:34:50.786Z,13.72
2018-09-08T00:37:19.792Z,13.71
2018-09-08T00:39:51.807Z,13.72
2018-09-08T00:42:20.904Z,13.73
2018-09-08T00:44:49.742Z,13.66
2018-09-08T00:47:18.792Z,13.65
2018-09-08T00:49:47.681Z,13.63
2018-09-08T00:52:16.608Z,13.57
2018-09-08T00:54:45.508Z,13.47
2018-09-08T00:57:14.455Z,13.40
2018-09-08T00:59:43.292Z,13.40
2018-09-08T01:02:12.378Z,13.30
2018-09-08T01:04:41.677Z,13.24
2018-09-08T01:07:16.097Z,13.17
2018-09-08T01:09:44.872Z,13.07
2018-09-08T01:12:13.983Z,13.06
2018-09-08T01:14:42.741Z,13.05
2018-09-08T01:17:11.601Z,13.04
2018-09-08T01:19:40.448Z,13.06
2018-09-08T01:22:09.307Z,13.08
2018-09-08T01:24:38.224Z,13.16
2018-09-08T01:27:07.152Z,13.21
2018-09-08T01:29:36.388Z,13.33
2018-09-08T01:32:05.323Z,13.27
2018-09-08T01:34:34.646Z,13.28
2018-09-08T01:37:03.364Z,13.29
2018-09-08T01:39:32.712Z,13.30
2018-09-08T01:42:01.791Z,13.36
2018-09-08T01:44:30.660Z,13.23
2018-09-08T01:46:59.780Z,13.17
2018-09-08T01:49:28.676Z,13.17
2018-09-08T01:51:57.532Z,13.18
2018-09-08T01:54:26.668Z,13.18
2018-09-08T01:56:55.476Z,13.25
2018-09-08T01:59:24.385Z,13.31
2018-09-08T02:01:53.752Z,13.35
2018-09-08T02:04:22.947Z,13.48
2018-09-08T02:06:52.145Z,13.50
2018-09-08T02:09:21.268Z,13.46
2018-09-08T02:11:50.076Z,13.39
2018-09-08T02:14:19.185Z,13.33
2018-09-08T02:16:48.415Z,13.31
2018-09-08T02:19:17.256Z,13.21
2018-09-08T02:21:46.041Z,13.08
2018-09-08T02:24:14.985Z,12.98
2018-09-08T02:26:43.872Z,12.91
2018-09-08T02:29:12.765Z,12.82
2018-09-08T02:31:41.666Z,12.73
2018-09-08T02:34:10.544Z,12.66
2018-09-08T02:36:39.687Z,12.57
2018-09-08T02:39:10.031Z,12.54
2018-09-08T02:41:39.124Z,12.48
2018-09-08T02:44:08.034Z,12.46
2018-09-08T02:46:37.059Z,12.35
2018-09-08T02:49:06.255Z,12.27
2018-09-08T02:51:33.808Z,12.19
2018-09-08T02:54:01.375Z,12.13
2018-09-08T02:56:29.140Z,12.11
2018-09-08T02:58:56.802Z,11.97
2018-09-08T03:01:24.417Z,11.97
2018-09-08T03:03:52.043Z,11.97
2018-09-08T03:06:20.191Z,11.83
2018-09-08T03:08:47.859Z,11.83
2018-09-08T03:11:15.546Z,11.79
2018-09-08T03:13:43.387Z,11.70
2018-09-08T03:16:11.228Z,11.70
2018-09-08T03:18:38.907Z,11.58
2018-09-08T03:21:06.708Z,11.66
2018-09-08T03:23:34.444Z,11.55
2018-09-08T03:26:02.102Z,11.47
2018-09-08T03:28:30.176Z,11.47
2018-09-08T03:30:57.828Z,11.40
2018-09-08T03:33:25.502Z,11.42
2018-09-08T03:35:53.112Z,11.39
2018-09-08T03:38:20.732Z,11.36
2018-09-08T03:40:48.488Z,11.44
2018-09-08T03:43:16.052Z,11.41
2018-09-08T03:45:43.560Z,11.30
2018-09-08T03:48:11.180Z,11.44
2018-09-08T03:50:38.684Z,11.37
2018-09-08T03:53:06.305Z,11.34
2018-09-08T03:55:33.812Z,11.40
2018-09-08T03:58:01.492Z,11.32
2018-09-08T04:06:21.640Z,11.36
2018-09-08T04:08:50.514Z,11.31
2018-09-08T04:11:19.636Z,11.11
2018-09-08T04:13:48.700Z,11.17
2018-09-08T04:16:17.516Z,11.40
2018-09-08T04:18:46.144Z,11.48
2018-09-08T04:21:14.917Z,11.26
2018-09-08T04:23:43.813Z,11.27
2018-09-08T04:26:12.844Z,11.13
2018-09-08T04:28:41.639Z,11.05
2018-09-08T04:31:10.563Z,11.00
2018-09-08T04:33:39.426Z,10.99
2018-09-08T04:36:08.234Z,10.87
2018-09-08T04:38:37.155Z,11.01
2018-09-08T04:41:06.357Z,10.96
2018-09-08T04:43:35.072Z,11.10
2018-09-08T04:46:03.917Z,11.02
2018-09-08T04:48:32.754Z,10.94
2018-09-08T04:51:01.581Z,11.00
2018-09-08T04:53:30.840Z,10.97
2018-09-08T04:55:59.944Z,11.03
2018-09-08T04:58:29.040Z,11.05
2018-09-08T05:00:57.941Z,11.11
2018-09-08T05:03:27.212Z,11.16
2018-09-08T05:05:56.272Z,11.16
2018-09-08T05:08:25.588Z,11.19
2018-09-08T05:10:54.517Z,11.21
2018-09-08T05:13:23.413Z,11.23
2018-09-08T05:15:52.509Z,11.27
2018-09-08T05:18:21.816Z,11.36
2018-09-08T05:20:57.516Z,11.44
2018-09-08T05:23:29.454Z,11.52
2018-09-08T05:25:58.680Z,11.54
2018-09-08T05:28:27.554Z,11.57
2018-09-08T05:30:56.906Z,11.60
2018-09-08T05:33:26.281Z,11.63
2018-09-08T05:35:55.731Z,11.92
2018-09-08T05:38:24.599Z,12.15
2018-09-08T05:40:53.708Z,12.04
2018-09-08T05:43:23.518Z,12.20
2018-09-08T05:45:52.562Z,12.29
2018-09-08T05:48:21.727Z,12.42
2018-09-08T05:50:50.619Z,12.43
2018-09-08T05:53:19.578Z,12.24
2018-09-08T05:55:49.762Z,12.19
2018-09-08T05:58:18.826Z,12.20
2018-09-08T06:00:47.721Z,12.27
2018-09-08T06:03:16.744Z,12.45
2018-09-08T06:05:45.624Z,12.84
2018-09-08T06:08:14.454Z,13.00
2018-09-08T06:10:43.223Z,13.05
2018-09-08T06:13:12.156Z,13.18
2018-09-08T06:15:41.013Z,13.33
2018-09-08T06:18:10.350Z,13.49
2018-09-08T06:20:39.164Z,13.46
2018-09-08T06:23:08.130Z,13.63
2018-09-08T06:25:37.048Z,13.79
2018-09-08T06:28:06.102Z,13.79
2018-09-08T06:30:34.975Z,13.94
2018-09-08T06:33:03.857Z,13.96
2018-09-08T06:35:32.704Z,14.11
2018-09-08T06:38:01.676Z,14.16
2018-09-08T06:40:30.462Z,14.23
2018-09-08T06:42:59.258Z,14.33
2018-09-08T06:45:28.127Z,14.56
2018-09-08T06:47:57.215Z,14.72
2018-09-08T06:50:26.429Z,14.59
2018-09-08T06:52:55.183Z,14.74
2018-09-08T06:55:23.975Z,15.05
2018-09-08T06:57:52.940Z,15.02
2018-09-08T07:00:21.782Z,15.04
2018-09-08T07:02:50.671Z,15.14
2018-09-08T07:05:19.595Z,15.30
2018-09-08T07:07:48.414Z,15.51
2018-09-08T07:10:17.355Z,15.37
2018-09-08T07:12:46.246Z,15.61
2018-09-08T07:15:15.181Z,15.64
2018-09-08T07:17:43.982Z,15.76
2018-09-08T07:20:12.848Z,15.90
2018-09-08T07:22:41.693Z,16.05
2018-09-08T07:25:11.161Z,16.09
2018-09-08T07:27:40.003Z,16.29
2018-09-08T07:30:08.854Z,16.35
2018-09-08T07:32:37.941Z,16.38
2018-09-08T07:35:06.893Z,16.58
2018-09-08T07:37:35.935Z,16.66
2018-09-08T07:40:05.477Z,16.63
2018-09-08T07:42:34.426Z,16.63
2018-09-08T07:45:03.464Z,16.71
2018-09-08T07:47:32.290Z,16.91
2018-09-08T07:50:01.233Z,16.80
2018-09-08T07:52:30.052Z,17.05
2018-09-08T07:54:59.216Z,17.16
2018-09-08T07:57:28.041Z,17.36
2018-09-08T07:59:56.802Z,17.15
2018-09-08T08:02:25.755Z,17.15
2018-09-08T08:04:54.452Z,17.31
2018-09-08T08:07:23.206Z,17.47
2018-09-08T08:09:52.065Z,17.39
2018-09-08T08:12:21.316Z,17.53
2018-09-08T08:14:50.078Z,17.54
2018-09-08T08:17:18.825Z,17.55
2018-09-08T08:19:47.943Z,17.44
2018-09-08T08:22:17.030Z,17.57
2018-09-08T08:24:46.338Z,17.55
2018-09-08T08:27:15.191Z,17.80
2018-09-08T08:29:44.020Z,17.66
2018-09-08T08:32:12.730Z,17.74
2018-09-08T08:34:41.686Z,17.87
2018-09-08T08:37:10.612Z,17.95
2018-09-08T08:39:39.467Z,17.99
2018-09-08T08:42:09.561Z,18.03
2018-09-08T08:44:38.681Z,18.11
2018-09-08T08:47:07.497Z,18.01
2018-09-08T08:49:36.361Z,18.06
2018-09-08T08:52:16.157Z,18.04
2018-09-08T08:54:48.011Z,18.11
2018-09-08T08:57:17.160Z,18.20
2018-09-08T08:59:45.852Z,18.33
2018-09-08T09:02:14.834Z,18.20
2018-09-08T09:04:43.735Z,18.18
2018-09-08T09:07:14.235Z,18.41
2018-09-08T09:09:43.909Z,18.19
2018-09-08T09:12:12.864Z,18.42
2018-09-08T09:14:41.659Z,18.58
2018-09-08T09:17:10.632Z,18.63
2018-09-08T09:19:50.659Z,18.49
2018-09-08T09:22:30.773Z,18.58
2018-09-08T09:25:08.849Z,18.74
2018-09-08T09:27:46.707Z,18.48
2018-09-08T09:30:16.311Z,18.91
2018-09-08T09:32:45.725Z,18.99
2018-09-08T09:35:16.945Z,18.73
2018-09-08T09:37:45.689Z,19.12
2018-09-08T09:40:15.558Z,19.23
2018-09-08T09:42:44.711Z,19.39
2018-09-08T09:45:13.755Z,19.63
2018-09-08T09:47:42.592Z,19.59
2018-09-08T09:50:12.658Z,19.67
2018-09-08T09:52:41.846Z,19.51
2018-09-08T09:55:11.299Z,19.58
2018-09-08T09:57:40.236Z,19.53
2018-09-08T10:00:11.497Z,19.38
2018-09-08T10:02:41.160Z,19.58
2018-09-08T10:05:12.996Z,19.54
2018-09-08T10:07:42.055Z,19.60
2018-09-08T10:10:15.217Z,19.70
2018-09-08T10:12:44.298Z,19.69
2018-09-08T10:15:13.107Z,20.04
2018-09-08T10:17:48.618Z,20.10
2018-09-08T10:20:20.335Z,20.12
2018-09-08T10:22:49.180Z,20.09
2018-09-08T10:25:19.870Z,20.03
2018-09-08T10:27:49.272Z,20.29
2018-09-08T10:30:18.553Z,20.29
2018-09-08T10:32:47.864Z,20.44
2018-09-08T10:35:16.871Z,20.53
2018-09-08T10:37:45.780Z,20.00
2018-09-08T10:40:14.840Z,20.53
2018-09-08T10:42:44.257Z,20.53
2018-09-08T10:45:13.198Z,20.72
2018-09-08T10:47:42.280Z,20.83
2018-09-08T10:50:11.711Z,20.73
2018-09-08T10:52:44.836Z,21.21
2018-09-08T10:55:13.523Z,21.65
2018-09-08T10:57:42.547Z,21.73
2018-09-08T11:00:12.463Z,20.86
2018-09-08T11:02:41.678Z,20.68
2018-09-08T11:05:10.423Z,20.95
2018-09-08T11:07:39.747Z,22.30
2018-09-08T11:10:08.789Z,23.79
2018-09-08T11:12:37.781Z,24.10
2018-09-08T11:15:08.155Z,25.17
2018-09-08T11:17:36.877Z,25.42
2018-09-08T11:20:06.901Z,24.27
2018-09-08T11:22:36.175Z,22.31
2018-09-08T11:25:04.880Z,24.31
2018-09-08T11:27:33.682Z,25.08
2018-09-08T11:30:04.389Z,25.99
2018-09-08T11:32:34.816Z,24.94
2018-09-08T11:35:05.796Z,26.16
2018-09-08T11:37:34.785Z,25.71
2018-09-08T11:40:03.662Z,26.31
2018-09-08T11:42:36.189Z,26.65
2018-09-08T11:45:05.430Z,26.31
2018-09-08T11:47:34.079Z,24.48
2018-09-08T11:50:03.181Z,23.86
2018-09-08T11:52:32.513Z,24.82
2018-09-08T11:55:01.831Z,25.14
2018-09-08T11:57:31.282Z,27.16
2018-09-08T12:00:00.147Z,26.39
2018-09-08T12:02:29.078Z,26.63
2018-09-08T12:04:58.127Z,27.79
2018-09-08T12:07:27.144Z,27.15
2018-09-08T12:09:55.853Z,26.38
2018-09-08T12:12:24.879Z,28.11
2018-09-08T12:14:54.315Z,29.20
2018-09-08T12:17:24.032Z,28.32
2018-09-08T12:19:52.946Z,28.20
2018-09-08T12:22:22.032Z,28.02
2018-09-08T12:24:50.924Z,24.83
2018-09-08T12:27:19.811Z,28.10
2018-09-08T12:29:48.704Z,27.16
2018-09-08T12:32:17.572Z,28.11
2018-09-08T12:34:46.487Z,28.15
2018-09-08T12:37:15.927Z,28.35
2018-09-08T12:39:45.078Z,29.57
2018-09-08T12:42:14.919Z,30.20
2018-09-08T12:44:43.868Z,29.63
2018-09-08T12:47:12.978Z,30.00
2018-09-08T12:49:42.094Z,29.94
2018-09-08T12:52:10.987Z,31.10
2018-09-08T12:54:39.868Z,31.07
2018-09-08T12:57:09.142Z,28.82
2018-09-08T12:59:38.256Z,26.23
2018-09-08T13:02:07.320Z,30.57
2018-09-08T13:04:36.848Z,32.41
2018-09-08T13:07:05.935Z,31.07
2018-09-08T13:09:34.743Z,31.91
2018-09-08T13:12:03.749Z,31.76
2018-09-08T13:14:32.996Z,30.23
2018-09-08T13:17:05.972Z,32.38
2018-09-08T13:19:48.032Z,31.69
2018-09-08T13:22:21.831Z,31.31
2018-09-08T13:24:51.321Z,33.02
2018-09-08T13:27:20.238Z,32.38
2018-09-08T13:30:01.694Z,32.21
2018-09-08T13:32:33.368Z,32.84
2018-09-08T13:35:03.247Z,32.42
2018-09-08T13:37:32.489Z,32.20
2018-09-08T13:40:02.022Z,29.57
2018-09-08T13:42:30.736Z,28.94
2018-09-08T13:44:59.573Z,25.90
2018-09-08T13:47:28.614Z,26.08
2018-09-08T13:49:57.711Z,24.57
2018-09-08T13:52:26.730Z,24.25
2018-09-08T13:54:55.672Z,23.92
2018-09-08T13:57:24.641Z,24.19
2018-09-08T13:59:53.399Z,22.83
2018-09-08T14:02:22.321Z,22.80
2018-09-08T14:04:51.197Z,22.87
2018-09-08T14:07:20.921Z,23.44
2018-09-08T14:09:50.016Z,24.31
2018-09-08T14:12:18.792Z,24.18
2018-09-08T14:14:47.588Z,23.60
2018-09-08T14:17:16.467Z,23.44
2018-09-08T14:19:45.360Z,23.59
2018-09-08T14:22:14.253Z,23.00
2018-09-08T14:24:43.153Z,22.63
2018-09-08T14:27:12.443Z,23.22
2018-09-08T14:29:41.168Z,22.96
2018-09-08T14:32:10.263Z,22.59
2018-09-08T14:34:39.054Z,22.62
2018-09-08T14:37:07.968Z,22.76
2018-09-08T14:39:37.304Z,23.20
2018-09-08T14:42:06.416Z,23.59
2018-09-08T14:44:35.170Z,23.46
2018-09-08T14:47:03.936Z,23.36
2018-09-08T14:49:32.927Z,22.82
2018-09-08T14:52:01.939Z,22.65
2018-09-08T14:54:30.713Z,22.79
2018-09-08T14:57:00.031Z,22.77
2018-09-08T14:59:28.854Z,22.42
2018-09-08T15:01:57.833Z,22.49
2018-09-08T15:04:33.304Z,22.39
2018-09-08T15:07:02.249Z,22.44
2018-09-08T15:09:31.264Z,22.56
2018-09-08T15:12:00.155Z,22.15
2018-09-08T15:14:28.931Z,21.93
2018-09-08T15:16:58.360Z,21.73
2018-09-08T15:19:27.174Z,21.70
2018-09-08T15:21:56.128Z,21.59
2018-09-08T15:24:25.271Z,21.58
2018-09-08T15:26:54.286Z,21.60
2018-09-08T15:29:23.361Z,21.54
2018-09-08T15:31:52.213Z,21.46
2018-09-08T15:34:21.092Z,21.45
2018-09-08T15:36:53.448Z,21.79
2018-09-08T15:39:24.425Z,21.80
2018-09-08T15:41:54.961Z,21.98
2018-09-08T15:44:24.447Z,22.01
2018-09-08T15:46:54.063Z,22.06
2018-09-08T15:49:23.619Z,21.69
2018-09-08T15:51:53.788Z,21.43
2018-09-08T15:54:22.732Z,21.43
2018-09-08T15:56:51.721Z,21.40
2018-09-08T15:59:20.637Z,21.38
2018-09-08T16:01:49.963Z,21.37
2018-09-08T16:04:21.768Z,21.55
2018-09-08T16:06:50.545Z,21.76
2018-09-08T16:09:19.371Z,21.97
2018-09-08T16:11:48.284Z,21.81
2018-09-08T16:14:17.226Z,21.92
2018-09-08T16:16:46.244Z,21.83
2018-09-08T16:19:15.434Z,21.60
2018-09-08T16:21:44.363Z,21.46
2018-09-08T16:24:13.635Z,21.19
2018-09-08T16:26:42.535Z,21.12
2018-09-08T16:29:11.658Z,21.02
2018-09-08T16:31:41.113Z,20.73
2018-09-08T16:34:10.420Z,20.45
2018-09-08T16:36:39.376Z,20.33
2018-09-08T16:39:10.516Z,20.17
2018-09-08T16:41:39.432Z,20.00
2018-09-08T16:44:08.930Z,19.88
2018-09-08T16:46:37.654Z,19.84
2018-09-08T16:49:06.808Z,19.74
2018-09-08T16:51:36.379Z,19.58
2018-09-08T16:54:05.272Z,19.82
2018-09-08T16:56:34.131Z,19.65
2018-09-08T16:59:02.999Z,19.62
2018-09-08T17:01:31.860Z,19.37
2018-09-08T17:04:00.832Z,19.20
2018-09-08T17:06:29.709Z,19.05
2018-09-08T17:08:58.387Z,18.82
2018-09-08T17:11:27.232Z,18.75
2018-09-08T17:13:55.984Z,18.70
2018-09-08T17:16:25.286Z,18.56
2018-09-08T17:18:54.160Z,18.44
2018-09-08T17:21:23.255Z,18.30
2018-09-08T17:23:52.160Z,18.19
2018-09-08T17:26:21.069Z,18.05
2018-09-08T17:28:49.877Z,17.97
2018-09-08T17:31:18.817Z,17.89
2018-09-08T17:33:47.800Z,17.71
2018-09-08T17:36:16.736Z,17.63
2018-09-08T17:38:45.659Z,17.47
2018-09-08T17:41:14.581Z,17.38
2018-09-08T17:43:43.491Z,17.35
2018-09-08T17:46:12.381Z,17.31
2018-09-08T17:48:41.258Z,17.11
2018-09-08T17:51:10.069Z,16.89
2018-09-08T17:53:38.985Z,16.96
2018-09-08T17:56:08.288Z,17.00
2018-09-08T17:58:37.234Z,16.88
2018-09-08T18:01:06.381Z,16.71
2018-09-08T18:03:35.106Z,16.61
2018-09-08T18:06:03.936Z,16.52
2018-09-08T18:08:32.672Z,16.52
2018-09-08T18:11:01.483Z,16.45
2018-09-08T18:13:30.295Z,16.49
2018-09-08T18:15:59.718Z,16.45
2018-09-08T18:18:28.725Z,16.40
2018-09-08T18:20:57.595Z,16.36
2018-09-08T18:23:26.969Z,16.29
2018-09-08T18:25:56.052Z,16.24
2018-09-08T18:28:26.462Z,16.20
2018-09-08T18:30:58.239Z,16.11
2018-09-08T18:33:28.348Z,16.03
2018-09-08T18:36:00.046Z,15.95
2018-09-08T18:38:42.347Z,15.92
2018-09-08T18:41:16.124Z,15.89
2018-09-08T18:43:46.257Z,15.84
2018-09-08T18:46:16.480Z,15.75
2018-09-08T18:48:45.400Z,15.79
2018-09-08T18:51:14.700Z,15.74
2018-09-08T18:53:43.464Z,15.64
2018-09-08T18:56:12.288Z,15.66
2018-09-08T18:58:41.339Z,15.58
2018-09-08T19:01:10.222Z,15.68
2018-09-08T19:03:39.111Z,15.51
2018-09-08T19:06:07.971Z,15.38
2018-09-08T19:08:44.068Z,15.27
2018-09-08T19:11:14.045Z,15.28
2018-09-08T19:13:43.692Z,15.33
2018-09-08T19:16:13.813Z,15.25
2018-09-08T19:18:42.552Z,15.18
2018-09-08T19:21:12.221Z,15.20
2018-09-08T19:23:41.108Z,15.14
2018-09-08T19:26:10.188Z,15.22
2018-09-08T19:28:39.062Z,15.06
2018-09-08T19:31:08.182Z,15.13
2018-09-08T19:33:37.678Z,15.06
2018-09-08T19:36:07.298Z,15.04
2018-09-08T19:38:37.564Z,14.93
2018-09-08T19:41:06.517Z,14.77
2018-09-08T19:43:35.281Z,14.77
2018-09-08T19:46:08.136Z,14.69
2018-09-08T19:48:36.891Z,14.58
2018-09-08T19:51:06.221Z,14.58
2018-09-08T19:53:40.300Z,14.52
2018-09-08T19:56:09.040Z,14.53
2018-09-08T19:58:42.979Z,14.48
2018-09-08T20:01:11.916Z,14.43
2018-09-08T20:03:40.924Z,14.40
2018-09-08T20:06:09.638Z,14.34
2018-09-08T20:08:38.256Z,14.25
2018-09-08T20:11:11.023Z,14.29
2018-09-08T20:13:43.671Z,14.30
2018-09-08T20:16:12.369Z,14.31
2018-09-08T20:18:41.056Z,14.29
2018-09-08T20:21:09.817Z,14.27
2018-09-08T20:23:38.455Z,14.20
2018-09-08T20:26:07.941Z,14.27
2018-09-08T20:28:37.132Z,14.31
2018-09-08T20:31:06.223Z,14.31
2018-09-08T20:33:36.151Z,14.22
2018-09-08T20:36:05.560Z,14.23
2018-09-08T20:38:34.495Z,14.26
2018-09-08T20:41:03.454Z,14.31
2018-09-08T20:43:32.304Z,14.41
2018-09-08T20:46:01.835Z,14.37
2018-09-08T20:48:30.722Z,14.44
2018-09-08T20:50:59.532Z,14.46
2018-09-08T20:53:28.711Z,14.50
2018-09-08T20:55:57.600Z,14.48
2018-09-08T20:58:26.690Z,14.55
2018-09-08T21:00:55.781Z,14.58
2018-09-08T21:03:24.684Z,14.60
2018-09-08T21:05:53.814Z,14.66
2018-09-08T21:08:22.671Z,14.70
2018-09-08T21:10:51.483Z,14.69
2018-09-08T21:13:20.336Z,14.71
2018-09-08T21:15:49.343Z,14.75
2018-09-08T21:18:18.148Z,14.73
2018-09-08T21:20:46.915Z,14.04
2018-09-08T21:23:15.670Z,14.78
2018-09-08T21:25:45.109Z,14.73
2018-09-08T21:28:13.987Z,14.77
2018-09-08T21:30:43.049Z,14.72
2018-09-08T21:33:11.877Z,14.70
2018-09-08T21:35:40.592Z,14.69
2018-09-08T21:38:09.563Z,14.67
2018-09-08T21:40:38.448Z,14.64
2018-09-08T21:43:07.337Z,14.63
2018-09-08T21:45:36.400Z,14.59
2018-09-08T21:48:05.257Z,14.55
2018-09-08T21:50:34.012Z,14.53
2018-09-08T21:53:02.897Z,14.46
2018-09-08T21:55:31.897Z,14.40
2018-09-08T21:58:00.588Z,14.37
2018-09-08T22:00:29.361Z,14.37
2018-09-08T22:02:58.304Z,14.37
2018-09-08T22:05:27.291Z,14.35
2018-09-08T22:07:55.987Z,14.28
2018-09-08T22:10:25.598Z,14.22
2018-09-08T22:12:54.428Z,14.17
2018-09-08T22:15:23.798Z,14.21
2018-09-08T22:17:52.610Z,14.23
2018-09-08T22:20:21.410Z,14.28
2018-09-08T22:22:50.285Z,14.26
2018-09-08T22:25:19.014Z,14.26
2018-09-08T22:27:47.824Z,14.22
2018-09-08T22:30:16.874Z,14.21
2018-09-08T22:32:45.981Z,14.19
2018-09-08T22:35:15.072Z,14.17
2018-09-08T22:37:43.832Z,14.16
2018-09-08T22:40:12.645Z,14.14
2018-09-08T22:42:41.495Z,14.12
2018-09-08T22:45:10.423Z,14.12
2018-09-08T22:47:39.145Z,14.12
2018-09-08T22:50:07.967Z,14.09
2018-09-08T22:52:37.101Z,14.08
2018-09-08T22:55:06.045Z,14.08
2018-09-08T22:57:34.732Z,13.99
2018-09-08T23:00:03.734Z,14.03
2018-09-08T23:02:32.665Z,14.01
2018-09-08T23:05:01.424Z,13.97
2018-09-08T23:07:30.509Z,13.95
2018-09-08T23:09:59.247Z,13.92
2018-09-08T23:12:28.258Z,13.97
2018-09-08T23:14:57.119Z,13.90
2018-09-08T23:17:26.593Z,13.89
2018-09-08T23:19:55.613Z,13.90
2018-09-08T23:22:25.004Z,13.88
2018-09-08T23:24:53.810Z,13.88
2018-09-08T23:27:22.558Z,13.94
2018-09-08T23:29:51.336Z,13.95
2018-09-08T23:32:20.631Z,13.96
2018-09-08T23:34:49.473Z,13.97
2018-09-08T23:37:18.561Z,13.95
2018-09-08T23:39:47.651Z,13.99
2018-09-08T23:42:16.749Z,13.94
2018-09-08T23:44:45.491Z,13.94
2018-09-08T23:47:14.540Z,13.91
2018-09-08T23:49:43.187Z,13.92
2018-09-08T23:52:12.072Z,13.89
2018-09-08T23:54:41.561Z,13.85
2018-09-08T23:57:10.851Z,13.80
